Time;durP1;ratioP1;P1;durP2;ratioP2;P2;SDS_P1;SDS_P2;PMS_P1;PMS_P2;Temp;Humidity;BMP_temperature;BMP_pressure;BME280_temperature;BME280_humidity;BME280_pressure;Samples;Min_cycle;Max_cycle;Signal;HPM_P1;HPM_P2
2022/03/21 00:00:46;;;;;;;14.60;10.50;;;;;;;7.90;46.82;153388.72;5039376;28;20544;-77
2022/03/21 00:03:24;;;;;;;18.50;11.17;;;;;;;7.99;46.59;153412.00;5038978;28;21076;-77
2022/03/21 00:06:00;;;;;;;13.77;11.03;;;;;;;7.91;46.43;153391.31;5050625;28;20446;-77
2022/03/21 00:08:36;;;;;;;15.03;11.73;;;;;;;7.90;46.67;153390.03;5049061;28;20541;-76
2022/03/21 00:11:12;;;;;;;13.53;11.03;;;;;;;7.79;46.93;153360.28;5034550;28;20442;-76
2022/03/21 00:13:49;;;;;;;15.33;11.47;;;;;;;7.72;47.06;153342.22;5036742;28;20534;-77
2022/03/21 00:16:27;;;;;;;12.90;10.03;;;;;;;7.59;46.77;153308.63;5068655;28;20477;-77
2022/03/21 00:19:03;;;;;;;15.00;11.73;;;;;;;7.71;46.79;153339.63;5053724;28;20502;-76
2022/03/21 00:21:39;;;;;;;13.00;11.27;;;;;;;7.70;46.55;153337.06;5047032;28;20454;-77
2022/03/21 00:24:15;;;;;;;15.10;10.70;;;;;;;7.68;46.33;153333.16;5050195;28;20880;-77
2022/03/21 00:26:51;;;;;;;14.77;11.40;;;;;;;7.66;46.67;153326.72;5048883;28;21053;-76
2022/03/21 00:29:36;;;;;;;15.43;11.30;;;;;;;7.63;46.92;153320.25;5039433;28;20439;-76
2022/03/21 00:32:13;;;;;;;13.40;10.50;;;;;;;7.59;47.18;153309.94;5036002;28;20455;-76
2022/03/21 00:34:49;;;;;;;17.53;12.27;;;;;;;7.52;47.57;153290.56;5046431;28;20443;-77
2022/03/21 00:37:26;;;;;;;14.33;11.33;;;;;;;7.42;47.30;153264.69;5053833;28;20578;-77
2022/03/21 00:40:01;;;;;;;18.27;14.10;;;;;;;7.34;47.81;153246.63;5051754;28;20924;-76
2022/03/21 00:42:38;;;;;;;19.03;12.70;;;;;;;7.19;47.91;153206.63;5049878;28;20443;-76
2022/03/21 00:45:15;;;;;;;14.43;11.73;;;;;;;7.13;48.80;153192.41;5047262;28;20469;-77
2022/03/21 00:47:54;;;;;;;13.80;10.97;;;;;;;7.16;48.63;153200.16;5060548;28;20479;-77
2022/03/21 00:50:30;;;;;;;14.73;11.27;;;;;;;7.06;50.23;153174.34;5035659;28;20474;-77
2022/03/21 00:53:05;;;;;;;16.03;12.50;;;;;;;6.95;49.78;153144.63;5057902;28;20455;-77
2022/03/21 00:55:41;;;;;;;15.37;11.93;;;;;;;6.90;51.21;153131.72;5069550;28;20435;-76
2022/03/21 00:58:17;;;;;;;12.43;10.80;;;;;;;6.85;52.51;153118.81;5057730;28;20458;-77
2022/03/21 01:00:52;;;;;;;14.70;12.07;;;;;;;6.78;53.38;153100.78;5054215;28;20453;-76
2022/03/21 01:03:29;;;;;;;17.10;12.47;;;;;;;6.75;54.01;153094.31;5058206;28;20500;-75
2022/03/21 01:06:05;;;;;;;15.70;11.80;;;;;;;6.66;53.84;153071.06;5053361;28;20458;-77
2022/03/21 01:08:40;;;;;;;19.20;12.50;;;;;;;6.61;54.35;153058.16;5056401;28;20446;-76
2022/03/21 01:11:16;;;;;;;17.60;13.43;;;;;;;6.59;53.83;153053.00;5054343;28;20438;-76
2022/03/21 01:13:51;;;;;;;19.10;12.90;;;;;;;6.54;53.73;153040.13;5058566;28;20807;-77
2022/03/21 01:16:27;;;;;;;19.53;14.40;;;;;;;6.46;54.23;153019.47;5048425;28;20473;-76
2022/03/21 01:19:04;;;;;;;17.30;13.00;;;;;;;6.39;55.04;153002.66;5058177;28;20438;-77
2022/03/21 01:21:39;;;;;;;17.30;13.70;;;;;;;6.33;53.96;152985.91;5074175;28;20451;-77
2022/03/21 01:24:15;;;;;;;20.90;13.77;;;;;;;6.33;53.92;152987.16;5054390;28;20462;-77
2022/03/21 01:26:51;;;;;;;16.70;12.20;;;;;;;6.45;52.86;153018.16;5055585;28;20446;-77
2022/03/21 01:29:26;;;;;;;14.47;11.70;;;;;;;6.66;51.96;153072.38;5043433;28;21093;-76
2022/03/21 01:32:02;;;;;;;15.17;11.57;;;;;;;6.86;50.56;153121.44;5048727;28;20498;-76
2022/03/21 01:34:39;;;;;;;13.73;10.57;;;;;;;6.73;50.63;153089.13;5053149;28;20879;-77
2022/03/21 01:37:14;;;;;;;13.70;10.90;;;;;;;6.88;50.13;153126.59;5072178;28;20477;-77
2022/03/21 01:39:50;;;;;;;14.13;11.80;;;;;;;6.80;49.87;153107.22;5059955;28;20454;-76
2022/03/21 01:42:26;;;;;;;14.70;10.87;;;;;;;6.74;49.72;153093.03;5054016;28;20804;-76
2022/03/21 01:45:01;;;;;;;13.70;10.87;;;;;;;6.73;50.43;153089.13;5057104;28;20497;-76
2022/03/21 01:47:37;;;;;;;14.90;11.50;;;;;;;6.82;49.77;153111.06;5052909;28;20458;-76
2022/03/21 01:50:15;;;;;;;14.83;11.60;;;;;;;6.71;49.72;153083.97;5070122;28;20900;-76
2022/03/21 01:55:43;;;;;;;15.10;10.67;;;;;;;6.49;50.22;153028.47;5059190;28;20434;-76
2022/03/21 01:55:47;;;;;;;15.70;11.20;;;;;;;6.61;49.99;153058.16;5065678;28;20447;-76
2022/03/21 01:58:24;;;;;;;15.20;11.53;;;;;;;6.47;51.00;153023.31;5052138;28;20548;-76
2022/03/21 02:01:00;;;;;;;13.87;10.37;;;;;;;6.35;53.85;152992.38;5055791;28;20533;-76
2022/03/21 02:03:36;;;;;;;16.77;12.03;;;;;;;6.28;52.59;152972.97;5053190;28;20483;-77
2022/03/21 02:06:13;;;;;;;13.47;11.00;;;;;;;6.21;54.68;152954.94;5053586;28;20451;-76
2022/03/21 02:08:48;;;;;;;14.47;11.27;;;;;;;6.13;54.24;152936.88;5045383;28;20566;-76
2022/03/21 02:11:25;;;;;;;13.67;10.60;;;;;;;6.10;55.80;152929.13;5054082;28;20454;-76
2022/03/21 02:14:02;;;;;;;15.07;11.17;;;;;;;6.06;56.02;152917.53;5041989;28;20782;-77
2022/03/21 02:16:40;;;;;;;14.27;11.83;;;;;;;6.01;56.86;152904.66;5053028;28;20813;-76
2022/03/21 02:19:22;;;;;;;14.77;12.63;;;;;;;5.95;57.54;152890.44;5051007;28;20549;-76
2022/03/21 02:22:09;;;;;;;13.63;11.20;;;;;;;5.90;56.96;152876.25;5061331;28;20454;-76
2022/03/21 02:24:53;;;;;;;14.37;11.77;;;;;;;5.90;56.02;152876.25;5043214;28;20462;-76
2022/03/21 02:27:31;;;;;;;14.67;11.40;;;;;;;5.95;55.91;152890.44;5067755;28;20447;-76
2022/03/21 02:30:08;;;;;;;13.73;11.80;;;;;;;5.98;54.06;152898.16;5057173;28;20445;-77
2022/03/21 02:32:43;;;;;;;13.90;10.97;;;;;;;6.01;54.30;152904.66;5069811;28;20482;-76
2022/03/21 02:35:20;;;;;;;13.23;10.10;;;;;;;5.95;54.13;152889.16;5050857;28;20451;-76
2022/03/21 02:37:56;;;;;;;12.70;10.50;;;;;;;5.93;54.37;152885.25;5054842;28;20470;-76
2022/03/21 02:40:32;;;;;;;18.10;13.47;;;;;;;5.92;54.69;152882.69;5041422;28;20459;-76
2022/03/21 02:43:08;;;;;;;19.30;13.67;;;;;;;6.02;53.33;152908.50;5049514;28;20447;-76
2022/03/21 02:45:44;;;;;;;18.60;14.60;;;;;;;6.00;52.66;152903.34;5054391;28;20824;-76
2022/03/21 02:48:20;;;;;;;16.27;12.67;;;;;;;6.05;52.54;152914.94;5051903;28;20442;-76
2022/03/21 02:51:00;;;;;;;16.17;11.40;;;;;;;6.15;51.31;152940.72;5056423;28;20835;-76
2022/03/21 02:53:38;;;;;;;15.03;11.87;;;;;;;6.17;50.82;152945.88;5041801;28;20787;-76
2022/03/21 02:56:13;;;;;;;15.50;11.30;;;;;;;6.22;50.97;152957.53;5055333;28;20521;-76
2022/03/21 02:58:51;;;;;;;13.00;11.20;;;;;;;6.15;51.80;152940.72;5035641;28;22330;-77
2022/03/21 03:01:27;;;;;;;15.13;12.53;;;;;;;6.05;52.84;152914.94;5035880;28;20593;-76
2022/03/21 03:04:02;;;;;;;12.80;10.60;;;;;;;6.07;51.13;152921.38;5055627;28;20434;-76
2022/03/21 03:06:39;;;;;;;13.60;10.60;;;;;;;6.01;53.11;152905.88;5057258;28;20441;-76
2022/03/21 03:09:15;;;;;;;13.90;11.20;;;;;;;5.89;53.10;152874.97;5051992;28;20813;-76
2022/03/21 03:11:50;;;;;;;13.13;11.40;;;;;;;5.87;54.55;152869.81;5056475;28;20936;-76
2022/03/21 03:14:27;;;;;;;13.50;10.63;;;;;;;5.84;54.22;152862.00;5040832;28;20536;-76
2022/03/21 03:17:03;;;;;;;13.47;10.47;;;;;;;5.78;54.12;152845.22;5049376;28;20477;-76
2022/03/21 03:19:38;;;;;;;13.00;11.37;;;;;;;5.77;53.75;152843.94;5049504;28;20949;-76
2022/03/21 03:22:14;;;;;;;13.30;10.70;;;;;;;5.72;53.45;152831.03;5072770;28;20461;-77
2022/03/21 03:24:51;;;;;;;12.30;9.70;;;;;;;5.69;53.55;152823.34;5072444;28;20442;-76
2022/03/21 03:27:26;;;;;;;12.37;10.70;;;;;;;5.66;53.16;152815.59;5063809;28;20455;-76
2022/03/21 03:30:04;;;;;;;10.97;9.70;;;;;;;5.67;52.80;152818.16;5056362;28;20437;-76
2022/03/21 03:32:41;;;;;;;13.97;11.50;;;;;;;5.69;53.72;152823.34;5055203;28;20458;-76
2022/03/21 03:35:16;;;;;;;12.70;11.17;;;;;;;5.73;51.93;152833.63;5039786;28;20964;-76
2022/03/21 03:37:52;;;;;;;14.23;11.10;;;;;;;5.68;54.52;152820.75;5048491;28;20958;-76
2022/03/21 03:40:28;;;;;;;15.30;11.60;;;;;;;5.65;53.38;152811.69;5051954;28;20802;-77
2022/03/21 03:43:03;;;;;;;11.43;10.23;;;;;;;5.58;55.23;152794.97;5056321;28;20449;-76
2022/03/21 03:45:40;;;;;;;14.13;10.27;;;;;;;5.55;54.80;152787.22;5073806;28;20434;-77
2022/03/21 03:48:16;;;;;;;13.70;11.30;;;;;;;5.56;53.91;152788.50;5046146;28;20459;-76
2022/03/21 03:50:52;;;;;;;15.20;11.43;;;;;;;5.57;54.11;152792.38;5049757;28;20464;-76
2022/03/21 03:53:28;;;;;;;14.83;11.10;;;;;;;5.64;52.50;152809.16;5052727;28;20442;-76
2022/03/21 03:56:04;;;;;;;14.17;11.20;;;;;;;5.62;53.61;152803.97;5065466;28;20965;-76
2022/03/21 03:58:39;;;;;;;13.40;9.93;;;;;;;5.46;53.67;152765.28;5053076;28;20977;-76
2022/03/21 04:01:16;;;;;;;15.17;10.97;;;;;;;5.47;54.37;152767.88;5053976;28;20459;-76
2022/03/21 04:03:51;;;;;;;13.90;10.47;;;;;;;5.51;52.05;152778.19;5052208;28;20492;-76
2022/03/21 04:06:27;;;;;;;12.73;10.20;;;;;;;5.52;51.57;152779.47;5039825;28;20877;-76
2022/03/21 04:09:03;;;;;;;19.60;11.40;;;;;;;5.46;52.97;152764.00;5052315;28;20430;-76
2022/03/21 04:11:38;;;;;;;12.67;10.53;;;;;;;5.42;51.79;152753.69;5068971;28;20455;-76
2022/03/21 04:14:14;;;;;;;14.70;11.67;;;;;;;5.38;53.69;152743.34;5053961;28;20865;-76
2022/03/21 04:16:51;;;;;;;13.27;9.93;;;;;;;5.35;52.44;152735.63;5041752;28;20450;-76
2022/03/21 04:19:27;;;;;;;13.40;10.07;;;;;;;5.30;52.65;152722.72;5067256;28;20538;-76
2022/03/21 04:22:02;;;;;;;13.50;10.40;;;;;;;5.29;52.79;152720.19;5056873;28;20883;-77
2022/03/21 04:24:38;;;;;;;13.07;10.20;;;;;;;5.31;54.38;152726.63;5054855;28;20441;-76
2022/03/21 04:27:14;;;;;;;13.70;11.30;;;;;;;5.27;52.78;152715.03;5062792;28;20442;-76
2022/03/21 04:29:49;;;;;;;14.80;10.80;;;;;;;5.29;52.06;152721.47;5051978;28;20792;-77
2022/03/21 04:32:26;;;;;;;14.60;10.50;;;;;;;5.42;52.21;152753.69;5052462;28;20465;-76
2022/03/21 04:35:02;;;;;;;12.87;10.30;;;;;;;5.37;52.41;152740.81;5052422;28;20933;-76
2022/03/21 04:37:38;;;;;;;14.70;10.70;;;;;;;5.18;53.94;152691.81;5049417;28;20474;-76
2022/03/21 04:40:14;;;;;;;15.10;10.90;;;;;;;5.11;52.68;152673.78;5052224;28;20447;-76
2022/03/21 04:42:49;;;;;;;15.27;11.53;;;;;;;5.08;53.71;152666.03;5052601;28;20458;-76
2022/03/21 04:45:25;;;;;;;13.27;10.60;;;;;;;4.97;53.67;152637.69;5064140;28;21415;-76
2022/03/21 04:48:02;;;;;;;17.00;12.90;;;;;;;4.84;53.93;152605.47;5060594;28;20451;-75
2022/03/21 04:50:38;;;;;;;15.13;12.03;;;;;;;4.97;53.75;152637.69;5054025;28;20803;-75
2022/03/21 04:53:14;;;;;;;14.27;10.50;;;;;;;4.82;54.33;152601.56;5054810;28;20446;-76
2022/03/21 04:55:49;;;;;;;12.80;10.23;;;;;;;4.72;54.56;152575.81;5052163;28;20439;-76
2022/03/21 04:58:25;;;;;;;17.20;10.70;;;;;;;4.69;54.60;152568.06;5053655;28;20843;-76
2022/03/21 05:01:01;;;;;;;12.67;10.13;;;;;;;4.66;55.10;152560.34;5072771;28;20449;-76
2022/03/21 05:03:38;;;;;;;11.37;9.53;;;;;;;4.62;54.98;152548.75;5070030;28;20463;-76
2022/03/21 05:06:17;;;;;;;14.73;11.40;;;;;;;4.64;56.04;152553.91;5040852;28;20447;-76
2022/03/21 05:08:52;;;;;;;15.23;12.57;;;;;;;4.50;59.06;152519.09;5047392;28;20450;-76
2022/03/21 05:11:28;;;;;;;13.53;10.77;;;;;;;4.46;57.57;152507.53;5035253;28;20948;-75
2022/03/21 05:14:04;;;;;;;12.77;10.67;;;;;;;4.44;60.59;152503.69;5068231;28;20538;-76
2022/03/21 05:16:39;;;;;;;13.70;10.90;;;;;;;4.42;60.05;152498.50;5052216;28;20869;-76
2022/03/21 05:19:17;;;;;;;15.10;11.50;;;;;;;4.35;59.26;152480.47;5051330;28;20474;-76
2022/03/21 05:21:52;;;;;;;16.50;11.87;;;;;;;4.28;59.38;152462.47;5052424;28;20968;-76
2022/03/21 05:36:01;;;;;;;16.30;11.87;;;;;;;4.30;57.78;152467.59;5054412;28;20997;-75
2022/03/21 05:38:37;;;;;;;14.50;11.27;;;;;;;4.34;57.53;152477.94;5074795;28;20799;-76
2022/03/21 05:41:13;;;;;;;14.10;11.00;;;;;;;4.39;56.65;152490.81;5058183;28;20544;-76
2022/03/21 05:43:49;;;;;;;15.60;11.43;;;;;;;4.35;57.37;152480.47;5057648;28;20431;-75
2022/03/21 05:46:24;;;;;;;14.40;9.87;;;;;;;4.37;57.05;152485.63;5052322;28;20437;-76
2022/03/21 05:48:59;;;;;;;14.00;10.87;;;;;;;4.33;57.43;152475.34;5040101;28;20455;-75
2022/03/21 05:51:38;;;;;;;13.37;11.97;;;;;;;4.34;58.04;152476.63;5057063;28;22553;-76
2022/03/21 05:54:14;;;;;;;16.50;11.50;;;;;;;4.37;58.38;152484.38;5056830;28;20445;-75
2022/03/21 05:56:50;;;;;;;14.50;12.00;;;;;;;4.34;58.12;152477.94;5074874;28;20450;-76
2022/03/21 06:02:26;;;;;;;14.23;10.60;;;;;;;4.35;57.76;152480.47;4994129;28;20813;-76
2022/03/21 06:05:02;;;;;;;13.80;11.00;;;;;;;4.36;57.50;152483.06;5037042;28;20695;-75
2022/03/21 06:07:39;;;;;;;16.27;11.20;;;;;;;4.46;56.48;152508.81;5046850;28;20438;-76
2022/03/21 06:10:14;;;;;;;14.40;11.20;;;;;;;4.47;56.65;152511.41;5056067;28;20449;-76
2022/03/21 06:12:50;;;;;;;20.73;11.40;;;;;;;4.53;56.28;152526.84;5048781;28;20482;-76
2022/03/21 06:15:25;;;;;;;14.63;11.40;;;;;;;4.45;57.21;152506.22;5043854;28;20813;-76
2022/03/21 06:18:02;;;;;;;15.00;11.70;;;;;;;4.44;59.30;152503.69;5037452;28;20573;-76
2022/03/21 06:20:39;;;;;;;14.03;11.60;;;;;;;4.53;58.42;152526.84;5053164;28;20454;-76
2022/03/21 06:23:16;;;;;;;14.90;10.37;;;;;;;4.61;59.15;152547.47;5051483;28;20458;-76
2022/03/21 06:25:53;;;;;;;14.23;11.53;;;;;;;4.74;57.07;152580.97;5048565;28;20452;-76
2022/03/21 06:28:30;;;;;;;15.23;11.40;;;;;;;4.78;56.81;152591.28;5070125;28;20932;-76
2022/03/21 06:31:05;;;;;;;17.53;12.70;;;;;;;4.93;58.54;152629.94;5047940;28;20801;-76
2022/03/21 06:33:41;;;;;;;18.27;12.60;;;;;;;5.12;58.92;152676.31;5071434;28;20443;-76
2022/03/21 06:36:17;;;;;;;14.77;11.40;;;;;;;5.32;57.92;152727.91;5049652;28;20778;-76
2022/03/21 06:38:54;;;;;;;15.33;11.17;;;;;;;5.46;57.48;152765.28;5070784;28;20462;-76
2022/03/21 06:41:29;;;;;;;14.90;11.87;;;;;;;5.66;57.43;152815.59;5030684;28;20451;-76
2022/03/21 06:44:06;;;;;;;13.60;11.57;;;;;;;5.83;57.64;152859.41;5047315;28;20439;-76
2022/03/21 06:46:42;;;;;;;15.10;11.90;;;;;;;6.03;56.98;152911.09;5056398;28;20438;-76
2022/03/21 06:49:17;;;;;;;15.33;12.07;;;;;;;6.27;56.27;152970.41;5046944;28;20494;-76
2022/03/21 06:51:53;;;;;;;15.50;12.63;;;;;;;6.37;56.10;152997.53;5050648;28;20482;-76
2022/03/21 06:54:30;;;;;;;14.37;11.80;;;;;;;6.49;54.62;153027.16;5052523;28;20521;-76
2022/03/21 06:57:06;;;;;;;18.40;12.33;;;;;;;6.63;55.17;153063.31;5050714;28;20487;-76
2022/03/21 06:59:41;;;;;;;16.00;11.97;;;;;;;6.82;54.96;153112.38;5066910;28;20459;-76
2022/03/21 07:02:19;;;;;;;17.30;12.53;;;;;;;6.91;53.96;153135.59;5056299;28;20516;-76
2022/03/21 07:04:57;;;;;;;13.43;11.60;;;;;;;7.17;52.64;153201.47;5027663;28;22340;-76
2022/03/21 07:07:33;;;;;;;15.90;12.50;;;;;;;7.24;53.43;153219.53;5047025;28;20455;-76
2022/03/21 07:10:10;;;;;;;15.07;11.90;;;;;;;7.45;53.98;153272.47;5048520;28;20452;-76
2022/03/21 07:12:46;;;;;;;15.03;12.27;;;;;;;7.66;52.26;153326.72;5047608;28;20814;-76
2022/03/21 07:15:22;;;;;;;14.40;11.93;;;;;;;7.87;52.71;153382.25;5043077;28;20450;-76
2022/03/21 07:17:58;;;;;;;14.77;12.33;;;;;;;8.02;52.77;153419.75;5048462;28;20826;-76
2022/03/21 07:20:34;;;;;;;16.07;13.40;;;;;;;8.14;52.02;153450.75;5060220;28;20784;-76
2022/03/21 07:23:10;;;;;;;18.40;13.27;;;;;;;8.30;51.91;153492.16;5038249;28;20900;-76
2022/03/21 07:25:49;;;;;;;16.60;12.70;;;;;;;8.60;49.36;153567.13;5045207;28;20437;-76
2022/03/21 07:28:24;;;;;;;15.93;12.90;;;;;;;8.80;49.01;153618.81;5052029;28;20439;-77
2022/03/21 07:31:00;;;;;;;17.80;12.87;;;;;;;8.99;47.71;153669.25;5047231;28;20454;-76
2022/03/21 07:33:35;;;;;;;16.50;12.57;;;;;;;9.05;47.72;153684.75;5054087;28;20447;-76
2022/03/21 07:36:11;;;;;;;15.90;12.80;;;;;;;9.11;49.01;153698.97;5047023;28;20438;-76
2022/03/21 07:38:47;;;;;;;17.03;12.77;;;;;;;9.16;49.85;153711.91;5063710;28;20550;-76
2022/03/21 07:41:26;;;;;;;16.60;12.50;;;;;;;9.25;48.76;153735.22;5048949;28;20451;-76
2022/03/21 07:44:02;;;;;;;16.30;12.80;;;;;;;9.29;47.20;153744.28;5039497;28;20482;-77
2022/03/21 07:49:30;;;;;;;14.90;11.80;;;;;;;9.53;47.49;153807.63;5060254;28;20434;-76
2022/03/21 07:52:06;;;;;;;15.57;13.20;;;;;;;9.69;47.16;153849.03;5056825;28;20477;-76
2022/03/21 07:54:42;;;;;;;15.60;12.60;;;;;;;9.92;46.84;153907.28;5044363;28;20453;-77
2022/03/21 07:57:19;;;;;;;16.70;12.80;;;;;;;10.09;45.73;153949.97;5056513;28;20462;-77
2022/03/21 07:59:55;;;;;;;16.93;13.50;;;;;;;10.20;44.92;153979.81;5057246;28;20469;-77
2022/03/21 08:02:30;;;;;;;15.53;12.60;;;;;;;10.38;44.81;154025.09;5037700;28;20946;-77
2022/03/21 08:05:07;;;;;;;14.83;12.50;;;;;;;10.50;44.16;154054.88;5044740;28;20466;-77
2022/03/21 08:07:43;;;;;;;17.03;12.20;;;;;;;10.66;45.14;154097.63;5030685;28;20462;-77
2022/03/21 08:10:19;;;;;;;19.70;12.50;;;;;;;10.73;45.43;154115.75;5041972;28;20438;-77
2022/03/21 08:12:56;;;;;;;17.13;14.37;;;;;;;10.98;43.46;154179.22;5036832;28;20478;-77
2022/03/21 08:15:32;;;;;;;17.90;13.43;;;;;;;10.81;44.76;154136.47;5030079;28;20543;-77
2022/03/21 08:18:07;;;;;;;16.17;14.47;;;;;;;10.84;45.07;154144.25;5041422;28;20466;-77
2022/03/21 08:20:45;;;;;;;15.80;13.03;;;;;;;10.93;44.86;154166.28;5067179;28;20435;-76
2022/03/21 08:23:20;;;;;;;16.10;13.00;;;;;;;11.18;44.82;154229.72;5050278;28;20438;-77
2022/03/21 08:25:57;;;;;;;15.70;12.80;;;;;;;11.30;43.71;154262.13;5055143;28;20937;-77
2022/03/21 08:28:34;;;;;;;17.50;13.23;;;;;;;11.45;44.75;154299.69;5053731;28;20434;-77
2022/03/21 08:31:09;;;;;;;16.77;14.17;;;;;;;11.65;43.89;154351.50;5053755;28;20442;-77
2022/03/21 08:33:45;;;;;;;16.40;14.17;;;;;;;11.74;43.20;154374.88;5047595;28;20469;-77
2022/03/21 08:36:20;;;;;;;16.47;13.80;;;;;;;11.85;42.96;154403.41;5053297;28;20954;-77
2022/03/21 08:38:56;;;;;;;16.63;14.37;;;;;;;11.98;44.35;154435.81;5033529;28;20463;-77
2022/03/21 08:41:31;;;;;;;18.20;14.73;;;;;;;12.01;44.72;154444.91;5050476;28;20461;-77
2022/03/21 08:44:08;;;;;;;16.10;13.70;;;;;;;11.96;43.53;154431.94;5055734;28;20785;-77
2022/03/21 08:46:44;;;;;;;16.27;13.20;;;;;;;11.89;43.83;154413.75;5053026;28;20446;-77
2022/03/21 08:49:26;;;;;;;20.97;14.60;;;;;;;11.94;44.87;154425.47;5055424;28;20444;-77
2022/03/21 08:52:03;;;;;;;16.23;13.57;;;;;;;12.16;43.94;154482.47;5053107;28;20475;-77
2022/03/21 08:54:39;;;;;;;15.27;13.60;;;;;;;12.19;44.19;154491.56;5027638;28;20549;-77
2022/03/21 08:57:15;;;;;;;15.33;13.73;;;;;;;12.26;44.13;154507.13;5049083;28;20450;-77
2022/03/21 08:59:52;;;;;;;16.10;14.27;;;;;;;12.28;42.66;154512.31;5048064;28;20466;-77
2022/03/21 09:02:27;;;;;;;16.00;14.27;;;;;;;12.26;42.45;154507.13;5043235;28;20454;-77
2022/03/21 09:05:05;;;;;;;17.63;15.17;;;;;;;12.34;42.56;154527.88;5045255;28;20453;-77
2022/03/21 09:07:44;;;;;;;15.67;13.33;;;;;;;12.32;45.25;154523.94;5040927;28;20536;-77
2022/03/21 09:10:19;;;;;;;15.40;13.80;;;;;;;12.22;44.20;154498.03;5026602;28;20437;-77
2022/03/21 09:12:55;;;;;;;19.37;14.90;;;;;;;12.17;42.66;154486.38;5056631;28;20477;-77
2022/03/21 09:15:34;;;;;;;16.70;12.70;;;;;;;12.11;43.17;154469.50;5044360;28;20822;-77
2022/03/21 09:18:09;;;;;;;16.10;14.37;;;;;;;12.23;42.80;154500.66;5051757;28;20451;-77
2022/03/21 09:20:45;;;;;;;17.80;15.13;;;;;;;12.23;42.30;154499.34;5046054;28;20438;-77
2022/03/21 09:23:20;;;;;;;16.87;15.07;;;;;;;12.54;42.08;154579.72;5044678;28;20474;-77
2022/03/21 09:25:56;;;;;;;16.50;14.13;;;;;;;12.55;41.35;154582.34;5060210;28;20557;-77
2022/03/21 09:28:32;;;;;;;18.43;15.20;;;;;;;12.65;42.02;154609.56;5032750;28;20478;-77
2022/03/21 09:31:09;;;;;;;16.60;14.50;;;;;;;12.45;43.82;154556.34;5050265;28;20553;-76
2022/03/21 09:33:45;;;;;;;18.10;14.30;;;;;;;12.29;45.10;154514.84;5050830;28;20450;-76
2022/03/21 09:36:21;;;;;;;18.33;14.90;;;;;;;12.29;42.70;154514.84;5048739;28;20458;-76
2022/03/21 09:38:56;;;;;;;18.10;15.03;;;;;;;12.48;42.46;154565.44;5050597;28;20494;-76
2022/03/21 09:41:32;;;;;;;16.57;13.97;;;;;;;12.47;42.84;154562.84;5032654;28;20451;-77
2022/03/21 09:44:09;;;;;;;20.10;15.70;;;;;;;12.63;42.79;154604.34;5044903;28;20453;-76
2022/03/21 09:46:48;;;;;;;17.83;15.57;;;;;;;12.48;42.04;154564.16;5037633;28;20442;-76
2022/03/21 09:49:27;;;;;;;17.73;15.10;;;;;;;12.34;46.15;154527.88;5034075;28;20554;-76
2022/03/21 09:52:03;;;;;;;17.77;15.00;;;;;;;12.52;41.95;154574.53;5040434;28;20483;-76
2022/03/21 09:54:39;;;;;;;19.90;15.07;;;;;;;12.70;42.36;154621.22;5047407;28;21045;-76
2022/03/21 09:57:15;;;;;;;18.43;14.10;;;;;;;12.47;43.19;154561.59;5047076;28;21274;-76
2022/03/21 09:59:51;;;;;;;17.47;14.80;;;;;;;12.23;42.83;154499.34;5036413;28;20819;-76
2022/03/21 10:02:28;;;;;;;17.93;14.20;;;;;;;12.02;44.19;154447.44;5047625;28;20455;-76
2022/03/21 10:05:04;;;;;;;22.80;15.53;;;;;;;12.42;43.69;154549.88;5033011;28;20453;-76
2022/03/21 10:07:44;;;;;;;22.37;14.93;;;;;;;12.53;43.51;154577.09;5066683;28;21015;-76
2022/03/21 10:10:19;;;;;;;18.00;15.00;;;;;;;12.56;43.95;154584.91;5033988;28;20787;-76
2022/03/21 10:12:55;;;;;;;20.03;14.43;;;;;;;12.65;42.44;154609.56;5031413;28;20937;-76
2022/03/21 10:15:32;;;;;;;27.77;15.53;;;;;;;12.61;43.41;154597.84;5046347;28;20462;-76
2022/03/21 10:18:10;;;;;;;20.07;15.67;;;;;;;12.84;42.70;154657.50;5045683;28;20443;-76
2022/03/21 10:20:46;;;;;;;17.43;14.77;;;;;;;12.85;42.49;154660.13;5048432;28;20481;-76
2022/03/21 10:23:23;;;;;;;16.90;14.07;;;;;;;12.85;42.39;154660.13;5037282;28;20438;-76
2022/03/21 10:25:59;;;;;;;19.90;15.47;;;;;;;12.75;42.44;154634.19;5067980;28;20447;-76
2022/03/21 10:28:36;;;;;;;19.60;15.50;;;;;;;12.63;42.69;154603.03;5032341;28;20451;-76
2022/03/21 10:31:11;;;;;;;20.50;15.53;;;;;;;12.66;43.09;154612.13;5071502;28;20481;-76
2022/03/21 10:34:00;;;;;;;19.00;14.80;;;;;;;12.65;43.33;154609.56;5039750;28;20441;-76
2022/03/21 10:36:35;;;;;;;20.00;16.27;;;;;;;12.61;42.95;154597.84;5039348;28;20450;-76
2022/03/21 10:39:12;;;;;;;19.00;15.20;;;;;;;13.08;42.36;154718.56;5037526;28;20466;-76
2022/03/21 10:41:48;;;;;;;19.53;15.53;;;;;;;13.26;41.81;154765.28;5065236;28;20450;-77
2022/03/21 10:44:25;;;;;;;19.37;15.20;;;;;;;12.89;41.66;154670.53;5034029;28;20541;-77
2022/03/21 10:47:07;;;;;;;21.47;16.47;;;;;;;12.88;42.21;154667.91;5048934;28;21138;-76
2022/03/21 10:49:45;;;;;;;19.00;14.73;;;;;;;12.89;42.89;154670.53;5054368;28;20489;-76
2022/03/21 10:52:21;;;;;;;20.00;14.40;;;;;;;12.89;41.78;154670.53;5029398;28;20431;-76
2022/03/21 10:55:03;;;;;;;20.10;14.30;;;;;;;12.76;41.62;154636.81;5021399;28;20455;-75
2022/03/21 10:57:39;;;;;;;18.20;15.50;;;;;;;12.84;41.76;154658.81;5010824;28;20462;-76
2022/03/21 11:00:17;;;;;;;19.43;14.60;;;;;;;13.06;41.12;154713.28;5013751;28;20484;-76
2022/03/21 11:02:55;;;;;;;19.23;15.43;;;;;;;13.25;40.19;154762.66;5030483;28;20447;-76
2022/03/21 11:05:35;;;;;;;18.83;15.90;;;;;;;13.16;40.86;154740.59;5025275;28;20447;-76
2022/03/21 11:08:13;;;;;;;18.90;14.50;;;;;;;13.21;40.16;154752.31;5020049;28;20452;-76
2022/03/21 11:10:49;;;;;;;19.30;15.23;;;;;;;13.38;41.11;154797.69;5008857;28;20464;-76
2022/03/21 11:13:27;;;;;;;18.90;15.47;;;;;;;13.37;40.96;154795.09;5013411;28;20538;-76
2022/03/21 11:16:03;;;;;;;20.40;16.17;;;;;;;13.27;39.99;154769.13;5025623;28;20448;-76
2022/03/21 11:18:41;;;;;;;18.90;15.90;;;;;;;13.21;40.10;154753.56;5026397;28;20439;-76
2022/03/21 11:21:19;;;;;;;19.93;15.20;;;;;;;13.25;40.31;154763.97;5025699;28;20782;-76
2022/03/21 11:23:55;;;;;;;20.00;15.60;;;;;;;13.14;40.15;154735.41;5025007;28;20444;-76
2022/03/21 11:26:37;;;;;;;20.37;15.17;;;;;;;13.10;40.67;154723.75;5023617;28;20966;-76
2022/03/21 11:29:24;;;;;;;20.90;15.57;;;;;;;13.02;40.57;154704.25;5023910;28;20511;-76
2022/03/21 11:32:11;;;;;;;20.23;15.97;;;;;;;13.01;40.55;154700.31;5007695;28;20468;-76
2022/03/21 11:34:55;;;;;;;21.60;17.03;;;;;;;12.91;40.80;154675.69;5019468;28;20445;-76
2022/03/21 11:37:33;;;;;;;25.60;17.13;;;;;;;12.90;40.88;154673.09;5026204;28;20445;-76
2022/03/21 11:40:25;;;;;;;19.13;14.03;;;;;;;12.86;40.68;154661.44;5013674;28;20890;-78
2022/03/21 11:43:29;;;;;;;20.20;14.70;;;;;;;12.96;40.93;154687.34;5026464;28;20456;-78
2022/03/21 11:46:29;;;;;;;20.57;15.27;;;;;;;12.86;41.16;154662.72;5024717;28;20823;-78
2022/03/21 11:49:05;;;;;;;18.73;14.23;;;;;;;12.95;41.21;154684.75;5022331;28;20939;-78
2022/03/21 11:51:41;;;;;;;20.03;16.30;;;;;;;12.96;40.99;154688.66;5046453;28;20466;-77
2022/03/21 11:54:29;;;;;;;19.80;15.60;;;;;;;12.90;40.35;154671.78;5037843;28;20445;-77
2022/03/21 11:57:05;;;;;;;21.60;16.33;;;;;;;12.98;41.49;154693.84;5046334;28;20774;-77
2022/03/21 12:00:11;;;;;;;21.77;15.60;;;;;;;13.11;41.31;154727.63;5058011;28;20462;-75
2022/03/21 12:02:56;;;;;;;20.13;14.70;;;;;;;13.18;41.77;154745.81;5042263;28;20471;-77
2022/03/21 12:05:51;;;;;;;18.20;14.77;;;;;;;13.23;41.30;154757.47;5037851;28;20446;-77
2022/03/21 12:08:51;;;;;;;21.57;16.30;;;;;;;13.17;40.56;154743.22;5043008;28;20531;-77
2022/03/21 12:12:01;;;;;;;20.63;14.07;;;;;;;13.10;40.65;154723.75;5061040;28;20853;-78
2022/03/21 12:14:41;;;;;;;20.17;16.10;;;;;;;13.20;40.48;154751.00;5040104;28;20534;-78
2022/03/21 12:17:38;;;;;;;18.27;14.20;;;;;;;13.20;40.70;154749.69;5033010;28;20565;-77